sensor_id;sensor_type;location;lat;lon;timestamp;P1;durP1;ratioP1;P2;durP2;ratioP2
4933;SDS011;2482;49.154;8.254;2023-02-01T00:00:32;6.10;;;4.33;;
4933;SDS011;2482;49.154;8.254;2023-02-01T00:03:00;4.57;;;3.83;;
4933;SDS011;2482;49.154;8.254;2023-02-01T00:05:27;4.70;;;3.30;;
4933;SDS011;2482;49.154;8.254;2023-02-01T00:07:54;6.03;;;4.33;;
4933;SDS011;2482;49.154;8.254;2023-02-01T00:10:21;5.93;;;4.07;;
4933;SDS011;2482;49.154;8.254;2023-02-01T00:12:49;4.43;;;3.67;;
4933;SDS011;2482;49.154;8.254;2023-02-01T00:15:16;6.13;;;3.93;;
4933;SDS011;2482;49.154;8.254;2023-02-01T00:17:43;4.03;;;3.63;;
4933;SDS011;2482;49.154;8.254;2023-02-01T00:20:10;4.70;;;3.50;;
4933;SDS011;2482;49.154;8.254;2023-02-01T00:22:37;5.30;;;3.47;;
4933;SDS011;2482;49.154;8.254;2023-02-01T00:25:05;5.67;;;3.43;;
4933;SDS011;2482;49.154;8.254;2023-02-01T00:27:32;6.13;;;3.73;;
4933;SDS011;2482;49.154;8.254;2023-02-01T00:29:59;5.70;;;4.30;;
4933;SDS011;2482;49.154;8.254;2023-02-01T00:32:26;4.27;;;3.07;;
4933;SDS011;2482;49.154;8.254;2023-02-01T00:34:53;6.57;;;4.30;;
4933;SDS011;2482;49.154;8.254;2023-02-01T00:37:20;4.10;;;3.53;;
4933;SDS011;2482;49.154;8.254;2023-02-01T00:39:47;5.07;;;4.10;;
4933;SDS011;2482;49.154;8.254;2023-02-01T00:42:15;4.03;;;3.43;;
4933;SDS011;2482;49.154;8.254;2023-02-01T00:44:42;5.37;;;4.27;;
4933;SDS011;2482;49.154;8.254;2023-02-01T00:47:09;9.80;;;4.30;;
4933;SDS011;2482;49.154;8.254;2023-02-01T00:49:36;5.70;;;4.07;;
4933;SDS011;2482;49.154;8.254;2023-02-01T00:52:03;8.13;;;4.50;;
4933;SDS011;2482;49.154;8.254;2023-02-01T00:54:31;4.63;;;3.80;;
4933;SDS011;2482;49.154;8.254;2023-02-01T00:56:59;6.40;;;4.23;;
4933;SDS011;2482;49.154;8.254;2023-02-01T00:59:26;7.53;;;3.87;;
4933;SDS011;2482;49.154;8.254;2023-02-01T01:01:53;4.43;;;3.60;;
4933;SDS011;2482;49.154;8.254;2023-02-01T01:04:20;5.17;;;3.70;;
4933;SDS011;2482;49.154;8.254;2023-02-01T01:06:47;6.07;;;3.50;;
4933;SDS011;2482;49.154;8.254;2023-02-01T01:09:14;6.07;;;3.97;;
4933;SDS011;2482;49.154;8.254;2023-02-01T01:11:41;7.67;;;3.73;;
4933;SDS011;2482;49.154;8.254;2023-02-01T01:14:08;6.40;;;4.00;;
4933;SDS011;2482;49.154;8.254;2023-02-01T01:16:36;4.30;;;3.60;;
4933;SDS011;2482;49.154;8.254;2023-02-01T01:19:03;7.77;;;3.90;;
4933;SDS011;2482;49.154;8.254;2023-02-01T01:21:31;5.30;;;4.03;;
4933;SDS011;2482;49.154;8.254;2023-02-01T01:23:59;7.63;;;4.43;;
4933;SDS011;2482;49.154;8.254;2023-02-01T01:26:27;8.10;;;3.80;;
4933;SDS011;2482;49.154;8.254;2023-02-01T01:28:55;6.30;;;4.60;;
4933;SDS011;2482;49.154;8.254;2023-02-01T01:31:24;3.90;;;3.50;;
4933;SDS011;2482;49.154;8.254;2023-02-01T01:34:01;8.30;;;4.50;;
4933;SDS011;2482;49.154;8.254;2023-02-01T01:36:28;5.30;;;4.00;;
4933;SDS011;2482;49.154;8.254;2023-02-01T01:38:55;6.03;;;3.60;;
4933;SDS011;2482;49.154;8.254;2023-02-01T01:41:28;4.57;;;3.80;;
4933;SDS011;2482;49.154;8.254;2023-02-01T01:44:02;4.60;;;3.47;;
4933;SDS011;2482;49.154;8.254;2023-02-01T01:46:35;5.13;;;3.20;;
4933;SDS011;2482;49.154;8.254;2023-02-01T01:49:06;7.70;;;3.93;;
4933;SDS011;2482;49.154;8.254;2023-02-01T01:51:43;5.60;;;3.90;;
4933;SDS011;2482;49.154;8.254;2023-02-01T01:54:21;5.83;;;3.80;;
4933;SDS011;2482;49.154;8.254;2023-02-01T01:57:10;3.80;;;3.50;;
4933;SDS011;2482;49.154;8.254;2023-02-01T01:59:48;5.10;;;2.93;;
4933;SDS011;2482;49.154;8.254;2023-02-01T02:02:29;5.47;;;2.97;;
4933;SDS011;2482;49.154;8.254;2023-02-01T02:04:56;4.60;;;3.03;;
4933;SDS011;2482;49.154;8.254;2023-02-01T02:07:25;9.60;;;3.37;;
4933;SDS011;2482;49.154;8.254;2023-02-01T02:10:00;3.63;;;2.90;;
4933;SDS011;2482;49.154;8.254;2023-02-01T02:12:32;3.50;;;3.10;;
4933;SDS011;2482;49.154;8.254;2023-02-01T02:14:59;6.07;;;3.30;;
4933;SDS011;2482;49.154;8.254;2023-02-01T02:29:28;5.93;;;2.97;;
4933;SDS011;2482;49.154;8.254;2023-02-01T02:32:35;4.00;;;3.10;;
4933;SDS011;2482;49.154;8.254;2023-02-01T02:41:33;4.33;;;3.83;;
4933;SDS011;2482;49.154;8.254;2023-02-01T02:50:36;6.77;;;4.10;;
4933;SDS011;2482;49.154;8.254;2023-02-01T02:54:14;6.67;;;4.60;;
4933;SDS011;2482;49.154;8.254;2023-02-01T02:57:05;5.30;;;4.40;;
4933;SDS011;2482;49.154;8.254;2023-02-01T02:59:54;8.13;;;4.83;;
4933;SDS011;2482;49.154;8.254;2023-02-01T03:02:44;5.37;;;4.17;;
4933;SDS011;2482;49.154;8.254;2023-02-01T03:05:35;5.70;;;3.93;;
4933;SDS011;2482;49.154;8.254;2023-02-01T03:08:13;6.90;;;4.47;;
4933;SDS011;2482;49.154;8.254;2023-02-01T03:19:10;4.97;;;4.07;;
4933;SDS011;2482;49.154;8.254;2023-02-01T03:21:55;6.33;;;4.33;;
4933;SDS011;2482;49.154;8.254;2023-02-01T03:24:29;4.47;;;4.00;;
4933;SDS011;2482;49.154;8.254;2023-02-01T03:27:08;6.13;;;4.03;;
4933;SDS011;2482;49.154;8.254;2023-02-01T03:32:47;6.80;;;4.80;;
4933;SDS011;2482;49.154;8.254;2023-02-01T03:35:36;4.30;;;3.90;;
4933;SDS011;2482;49.154;8.254;2023-02-01T03:41:31;5.10;;;3.90;;
4933;SDS011;2482;49.154;8.254;2023-02-01T03:46:54;8.20;;;4.57;;
4933;SDS011;2482;49.154;8.254;2023-02-01T03:49:39;6.60;;;4.07;;
4933;SDS011;2482;49.154;8.254;2023-02-01T03:52:16;8.60;;;4.70;;
4933;SDS011;2482;49.154;8.254;2023-02-01T03:54:50;6.63;;;4.77;;
4933;SDS011;2482;49.154;8.254;2023-02-01T03:57:20;4.77;;;4.07;;
4933;SDS011;2482;49.154;8.254;2023-02-01T03:59:53;5.20;;;4.10;;
4933;SDS011;2482;49.154;8.254;2023-02-01T04:02:19;8.60;;;5.27;;
4933;SDS011;2482;49.154;8.254;2023-02-01T04:04:46;10.30;;;4.03;;
4933;SDS011;2482;49.154;8.254;2023-02-01T04:07:13;5.00;;;3.93;;
4933;SDS011;2482;49.154;8.254;2023-02-01T04:09:40;5.70;;;4.20;;
4933;SDS011;2482;49.154;8.254;2023-02-01T04:12:08;7.83;;;4.30;;
4933;SDS011;2482;49.154;8.254;2023-02-01T04:14:35;13.20;;;3.63;;
4933;SDS011;2482;49.154;8.254;2023-02-01T04:17:02;4.83;;;3.57;;
4933;SDS011;2482;49.154;8.254;2023-02-01T04:19:29;6.20;;;3.73;;
4933;SDS011;2482;49.154;8.254;2023-02-01T04:21:56;5.00;;;3.70;;
4933;SDS011;2482;49.154;8.254;2023-02-01T04:24:23;4.90;;;2.80;;
4933;SDS011;2482;49.154;8.254;2023-02-01T04:26:50;4.77;;;2.93;;
4933;SDS011;2482;49.154;8.254;2023-02-01T04:29:17;3.67;;;3.30;;
4933;SDS011;2482;49.154;8.254;2023-02-01T04:31:44;4.43;;;3.40;;
4933;SDS011;2482;49.154;8.254;2023-02-01T04:34:12;6.53;;;3.77;;
4933;SDS011;2482;49.154;8.254;2023-02-01T04:36:39;4.30;;;3.20;;
4933;SDS011;2482;49.154;8.254;2023-02-01T04:39:08;3.17;;;2.83;;
4933;SDS011;2482;49.154;8.254;2023-02-01T04:41:35;3.37;;;3.07;;
4933;SDS011;2482;49.154;8.254;2023-02-01T04:44:02;7.90;;;3.13;;
4933;SDS011;2482;49.154;8.254;2023-02-01T04:46:30;3.10;;;2.80;;
4933;SDS011;2482;49.154;8.254;2023-02-01T04:48:57;4.73;;;2.83;;
4933;SDS011;2482;49.154;8.254;2023-02-01T04:51:24;3.67;;;2.90;;
4933;SDS011;2482;49.154;8.254;2023-02-01T04:53:51;4.50;;;2.73;;
4933;SDS011;2482;49.154;8.254;2023-02-01T04:56:18;4.67;;;3.03;;
4933;SDS011;2482;49.154;8.254;2023-02-01T04:58:45;5.23;;;3.30;;
4933;SDS011;2482;49.154;8.254;2023-02-01T05:01:11;2.97;;;2.77;;
4933;SDS011;2482;49.154;8.254;2023-02-01T05:03:38;3.07;;;2.73;;
4933;SDS011;2482;49.154;8.254;2023-02-01T05:06:05;5.47;;;3.03;;
4933;SDS011;2482;49.154;8.254;2023-02-01T05:08:32;3.73;;;2.90;;
4933;SDS011;2482;49.154;8.254;2023-02-01T05:10:59;3.60;;;2.50;;
4933;SDS011;2482;49.154;8.254;2023-02-01T05:13:28;3.40;;;3.10;;
4933;SDS011;2482;49.154;8.254;2023-02-01T05:16:14;5.20;;;3.60;;
4933;SDS011;2482;49.154;8.254;2023-02-01T05:18:42;3.23;;;2.93;;
4933;SDS011;2482;49.154;8.254;2023-02-01T05:21:09;5.63;;;2.97;;
4933;SDS011;2482;49.154;8.254;2023-02-01T05:23:36;4.70;;;3.00;;
4933;SDS011;2482;49.154;8.254;2023-02-01T05:26:23;3.57;;;3.17;;
4933;SDS011;2482;49.154;8.254;2023-02-01T05:28:51;4.17;;;3.50;;
4933;SDS011;2482;49.154;8.254;2023-02-01T05:31:18;7.77;;;3.83;;
4933;SDS011;2482;49.154;8.254;2023-02-01T05:33:45;5.63;;;4.50;;
4933;SDS011;2482;49.154;8.254;2023-02-01T05:36:12;5.77;;;4.47;;
4933;SDS011;2482;49.154;8.254;2023-02-01T05:38:39;5.77;;;4.10;;
4933;SDS011;2482;49.154;8.254;2023-02-01T05:41:06;7.37;;;4.30;;
4933;SDS011;2482;49.154;8.254;2023-02-01T05:43:34;5.40;;;4.27;;
4933;SDS011;2482;49.154;8.254;2023-02-01T05:46:01;9.60;;;4.33;;
4933;SDS011;2482;49.154;8.254;2023-02-01T05:48:28;6.50;;;4.00;;
4933;SDS011;2482;49.154;8.254;2023-02-01T05:50:55;6.57;;;4.70;;
4933;SDS011;2482;49.154;8.254;2023-02-01T05:53:22;4.80;;;4.40;;
4933;SDS011;2482;49.154;8.254;2023-02-01T05:55:49;7.43;;;4.77;;
4933;SDS011;2482;49.154;8.254;2023-02-01T05:58:16;8.20;;;5.90;;
4933;SDS011;2482;49.154;8.254;2023-02-01T06:00:43;9.40;;;5.10;;
4933;SDS011;2482;49.154;8.254;2023-02-01T06:03:10;10.63;;;5.27;;
4933;SDS011;2482;49.154;8.254;2023-02-01T06:05:37;8.20;;;6.00;;
4933;SDS011;2482;49.154;8.254;2023-02-01T06:08:04;9.60;;;5.47;;
4933;SDS011;2482;49.154;8.254;2023-02-01T06:10:33;6.80;;;5.50;;
4933;SDS011;2482;49.154;8.254;2023-02-01T06:13:00;6.40;;;5.03;;
4933;SDS011;2482;49.154;8.254;2023-02-01T06:15:29;7.83;;;5.57;;
4933;SDS011;2482;49.154;8.254;2023-02-01T06:17:57;10.13;;;5.63;;
4933;SDS011;2482;49.154;8.254;2023-02-01T06:20:24;8.80;;;5.53;;
4933;SDS011;2482;49.154;8.254;2023-02-01T06:22:51;12.33;;;6.27;;
4933;SDS011;2482;49.154;8.254;2023-02-01T06:25:18;9.50;;;5.97;;
4933;SDS011;2482;49.154;8.254;2023-02-01T06:27:47;11.27;;;6.23;;
4933;SDS011;2482;49.154;8.254;2023-02-01T06:30:14;12.87;;;6.60;;
4933;SDS011;2482;49.154;8.254;2023-02-01T06:32:42;17.17;;;6.70;;
4933;SDS011;2482;49.154;8.254;2023-02-01T06:35:09;13.30;;;6.63;;
4933;SDS011;2482;49.154;8.254;2023-02-01T06:37:42;11.77;;;6.80;;
4933;SDS011;2482;49.154;8.254;2023-02-01T06:40:09;8.00;;;6.60;;
4933;SDS011;2482;49.154;8.254;2023-02-01T06:42:38;11.40;;;6.93;;
4933;SDS011;2482;49.154;8.254;2023-02-01T06:45:05;12.33;;;6.73;;
4933;SDS011;2482;49.154;8.254;2023-02-01T06:47:33;14.03;;;6.90;;
4933;SDS011;2482;49.154;8.254;2023-02-01T06:50:00;12.70;;;6.73;;
4933;SDS011;2482;49.154;8.254;2023-02-01T06:52:27;10.07;;;6.07;;
4933;SDS011;2482;49.154;8.254;2023-02-01T06:54:54;10.90;;;5.87;;
4933;SDS011;2482;49.154;8.254;2023-02-01T06:57:21;16.07;;;6.30;;
4933;SDS011;2482;49.154;8.254;2023-02-01T06:59:48;13.20;;;5.73;;
4933;SDS011;2482;49.154;8.254;2023-02-01T07:02:15;11.87;;;6.23;;
4933;SDS011;2482;49.154;8.254;2023-02-01T07:04:42;11.87;;;6.30;;
4933;SDS011;2482;49.154;8.254;2023-02-01T07:07:09;9.53;;;6.07;;
4933;SDS011;2482;49.154;8.254;2023-02-01T07:09:37;12.00;;;7.77;;
4933;SDS011;2482;49.154;8.254;2023-02-01T07:12:04;15.07;;;7.13;;
4933;SDS011;2482;49.154;8.254;2023-02-01T07:14:31;13.07;;;6.23;;
4933;SDS011;2482;49.154;8.254;2023-02-01T07:16:58;9.80;;;6.80;;
4933;SDS011;2482;49.154;8.254;2023-02-01T07:19:25;13.33;;;5.97;;
4933;SDS011;2482;49.154;8.254;2023-02-01T07:21:52;22.63;;;6.87;;
4933;SDS011;2482;49.154;8.254;2023-02-01T07:24:19;14.87;;;6.50;;
4933;SDS011;2482;49.154;8.254;2023-02-01T07:26:46;15.60;;;6.53;;
4933;SDS011;2482;49.154;8.254;2023-02-01T07:29:14;11.33;;;6.13;;
4933;SDS011;2482;49.154;8.254;2023-02-01T07:31:41;7.53;;;5.57;;
4933;SDS011;2482;49.154;8.254;2023-02-01T07:34:08;9.23;;;6.07;;
4933;SDS011;2482;49.154;8.254;2023-02-01T07:36:34;14.90;;;6.60;;
4933;SDS011;2482;49.154;8.254;2023-02-01T07:39:03;19.63;;;7.37;;
4933;SDS011;2482;49.154;8.254;2023-02-01T07:41:31;14.47;;;5.27;;
4933;SDS011;2482;49.154;8.254;2023-02-01T07:43:58;8.00;;;5.00;;
4933;SDS011;2482;49.154;8.254;2023-02-01T07:46:25;8.13;;;4.70;;
4933;SDS011;2482;49.154;8.254;2023-02-01T07:48:53;10.00;;;4.80;;
4933;SDS011;2482;49.154;8.254;2023-02-01T07:51:20;8.37;;;5.00;;
4933;SDS011;2482;49.154;8.254;2023-02-01T07:53:47;9.50;;;5.07;;
4933;SDS011;2482;49.154;8.254;2023-02-01T07:56:15;10.10;;;4.93;;
4933;SDS011;2482;49.154;8.254;2023-02-01T07:58:48;13.43;;;5.77;;
4933;SDS011;2482;49.154;8.254;2023-02-01T08:01:21;12.03;;;5.97;;
4933;SDS011;2482;49.154;8.254;2023-02-01T08:03:53;14.43;;;5.77;;
4933;SDS011;2482;49.154;8.254;2023-02-01T08:06:29;8.63;;;4.73;;
4933;SDS011;2482;49.154;8.254;2023-02-01T08:08:58;15.87;;;5.40;;
4933;SDS011;2482;49.154;8.254;2023-02-01T08:11:26;13.27;;;5.10;;
4933;SDS011;2482;49.154;8.254;2023-02-01T08:13:53;17.73;;;6.30;;
4933;SDS011;2482;49.154;8.254;2023-02-01T08:16:21;10.50;;;4.70;;
4933;SDS011;2482;49.154;8.254;2023-02-01T08:18:49;16.77;;;4.37;;
4933;SDS011;2482;49.154;8.254;2023-02-01T08:21:22;15.60;;;4.87;;
4933;SDS011;2482;49.154;8.254;2023-02-01T08:23:51;13.97;;;4.70;;
4933;SDS011;2482;49.154;8.254;2023-02-01T08:26:23;13.73;;;5.47;;
4933;SDS011;2482;49.154;8.254;2023-02-01T08:28:52;14.53;;;4.37;;
4933;SDS011;2482;49.154;8.254;2023-02-01T08:31:23;9.43;;;3.90;;
4933;SDS011;2482;49.154;8.254;2023-02-01T08:33:53;10.43;;;4.10;;
4933;SDS011;2482;49.154;8.254;2023-02-01T08:36:23;14.40;;;4.47;;
4933;SDS011;2482;49.154;8.254;2023-02-01T08:38:52;14.03;;;5.27;;
4933;SDS011;2482;49.154;8.254;2023-02-01T08:41:20;20.47;;;4.70;;
4933;SDS011;2482;49.154;8.254;2023-02-01T08:43:50;14.60;;;4.90;;
4933;SDS011;2482;49.154;8.254;2023-02-01T08:46:18;11.53;;;3.87;;
4933;SDS011;2482;49.154;8.254;2023-02-01T08:48:47;10.83;;;3.60;;
4933;SDS011;2482;49.154;8.254;2023-02-01T08:51:16;10.00;;;4.43;;
4933;SDS011;2482;49.154;8.254;2023-02-01T08:53:45;9.57;;;4.00;;
4933;SDS011;2482;49.154;8.254;2023-02-01T08:56:13;8.60;;;3.93;;
4933;SDS011;2482;49.154;8.254;2023-02-01T08:58:43;13.80;;;4.10;;
4933;SDS011;2482;49.154;8.254;2023-02-01T09:01:13;10.17;;;4.23;;
4933;SDS011;2482;49.154;8.254;2023-02-01T09:03:46;15.73;;;5.23;;
4933;SDS011;2482;49.154;8.254;2023-02-01T09:06:13;11.83;;;3.50;;
4933;SDS011;2482;49.154;8.254;2023-02-01T09:08:41;12.53;;;3.23;;
4933;SDS011;2482;49.154;8.254;2023-02-01T09:11:13;7.03;;;3.23;;
4933;SDS011;2482;49.154;8.254;2023-02-01T09:13:45;14.30;;;3.90;;
4933;SDS011;2482;49.154;8.254;2023-02-01T09:16:13;17.83;;;4.40;;
4933;SDS011;2482;49.154;8.254;2023-02-01T09:18:40;17.40;;;3.03;;
4933;SDS011;2482;49.154;8.254;2023-02-01T09:21:26;12.77;;;3.30;;
4933;SDS011;2482;49.154;8.254;2023-02-01T09:23:54;12.20;;;4.40;;
4933;SDS011;2482;49.154;8.254;2023-02-01T09:26:21;12.50;;;3.50;;
4933;SDS011;2482;49.154;8.254;2023-02-01T09:28:58;10.20;;;3.50;;
4933;SDS011;2482;49.154;8.254;2023-02-01T09:31:26;13.90;;;3.37;;
4933;SDS011;2482;49.154;8.254;2023-02-01T09:33:53;15.37;;;4.10;;
4933;SDS011;2482;49.154;8.254;2023-02-01T09:36:20;10.57;;;3.00;;
4933;SDS011;2482;49.154;8.254;2023-02-01T09:38:49;11.93;;;3.83;;
4933;SDS011;2482;49.154;8.254;2023-02-01T09:47:33;16.77;;;4.13;;
4933;SDS011;2482;49.154;8.254;2023-02-01T09:50:08;17.73;;;3.93;;
4933;SDS011;2482;49.154;8.254;2023-02-01T09:52:50;8.07;;;2.80;;
4933;SDS011;2482;49.154;8.254;2023-02-01T09:58:09;11.53;;;3.00;;
4933;SDS011;2482;49.154;8.254;2023-02-01T10:01:02;10.70;;;3.27;;
4933;SDS011;2482;49.154;8.254;2023-02-01T10:03:34;14.60;;;3.53;;
4933;SDS011;2482;49.154;8.254;2023-02-01T10:18:32;16.20;;;3.77;;
4933;SDS011;2482;49.154;8.254;2023-02-01T10:22:23;11.73;;;3.40;;
4933;SDS011;2482;49.154;8.254;2023-02-01T10:24:58;12.17;;;3.97;;
4933;SDS011;2482;49.154;8.254;2023-02-01T10:27:35;10.33;;;3.30;;
4933;SDS011;2482;49.154;8.254;2023-02-01T10:30:51;9.50;;;2.53;;
4933;SDS011;2482;49.154;8.254;2023-02-01T10:33:07;9.87;;;2.77;;
4933;SDS011;2482;49.154;8.254;2023-02-01T10:38:59;14.10;;;2.27;;
4933;SDS011;2482;49.154;8.254;2023-02-01T10:41:30;7.23;;;2.20;;
4933;SDS011;2482;49.154;8.254;2023-02-01T10:44:03;13.63;;;3.47;;
4933;SDS011;2482;49.154;8.254;2023-02-01T10:46:35;10.13;;;2.10;;
4933;SDS011;2482;49.154;8.254;2023-02-01T10:49:04;8.30;;;3.23;;
4933;SDS011;2482;49.154;8.254;2023-02-01T10:55:30;19.47;;;3.07;;
4933;SDS011;2482;49.154;8.254;2023-02-01T10:58:15;11.90;;;3.10;;
4933;SDS011;2482;49.154;8.254;2023-02-01T11:03:40;11.53;;;3.37;;
4933;SDS011;2482;49.154;8.254;2023-02-01T11:06:33;14.50;;;2.90;;
4933;SDS011;2482;49.154;8.254;2023-02-01T11:09:11;12.17;;;3.57;;
4933;SDS011;2482;49.154;8.254;2023-02-01T11:14:37;14.63;;;3.20;;
4933;SDS011;2482;49.154;8.254;2023-02-01T11:19:47;15.07;;;4.23;;
4933;SDS011;2482;49.154;8.254;2023-02-01T11:22:24;11.93;;;3.23;;
4933;SDS011;2482;49.154;8.254;2023-02-01T11:24:54;16.80;;;4.10;;
4933;SDS011;2482;49.154;8.254;2023-02-01T11:27:22;16.43;;;3.80;;
4933;SDS011;2482;49.154;8.254;2023-02-01T11:29:55;8.10;;;2.53;;
4933;SDS011;2482;49.154;8.254;2023-02-01T11:32:26;9.20;;;2.43;;
4933;SDS011;2482;49.154;8.254;2023-02-01T11:34:55;10.73;;;2.20;;
4933;SDS011;2482;49.154;8.254;2023-02-01T11:37:35;8.17;;;2.20;;
4933;SDS011;2482;49.154;8.254;2023-02-01T11:42:54;12.50;;;3.50;;
4933;SDS011;2482;49.154;8.254;2023-02-01T11:45:25;16.90;;;2.90;;
4933;SDS011;2482;49.154;8.254;2023-02-01T11:47:56;20.30;;;3.23;;
4933;SDS011;2482;49.154;8.254;2023-02-01T11:50:29;9.53;;;3.20;;
4933;SDS011;2482;49.154;8.254;2023-02-01T11:56:15;11.00;;;2.40;;
4933;SDS011;2482;49.154;8.254;2023-02-01T12:05:37;11.50;;;3.10;;
4933;SDS011;2482;49.154;8.254;2023-02-01T12:11:17;10.60;;;3.00;;
4933;SDS011;2482;49.154;8.254;2023-02-01T12:23:20;7.77;;;2.20;;
4933;SDS011;2482;49.154;8.254;2023-02-01T12:29:22;11.23;;;2.47;;
4933;SDS011;2482;49.154;8.254;2023-02-01T12:41:02;13.93;;;3.03;;
4933;SDS011;2482;49.154;8.254;2023-02-01T12:44:03;16.83;;;3.20;;
4933;SDS011;2482;49.154;8.254;2023-02-01T13:01:13;9.87;;;2.57;;
4933;SDS011;2482;49.154;8.254;2023-02-01T13:03:54;9.57;;;2.40;;
4933;SDS011;2482;49.154;8.254;2023-02-01T13:09:26;21.10;;;3.20;;
4933;SDS011;2482;49.154;8.254;2023-02-01T13:12:15;7.77;;;2.20;;
4933;SDS011;2482;49.154;8.254;2023-02-01T13:17:25;19.43;;;3.23;;
4933;SDS011;2482;49.154;8.254;2023-02-01T13:22:43;9.83;;;2.70;;
4933;SDS011;2482;49.154;8.254;2023-02-01T13:25:30;10.53;;;2.30;;
4933;SDS011;2482;49.154;8.254;2023-02-01T13:28:05;7.40;;;2.13;;
4933;SDS011;2482;49.154;8.254;2023-02-01T13:33:50;14.60;;;3.03;;
4933;SDS011;2482;49.154;8.254;2023-02-01T13:45:01;11.53;;;2.63;;
4933;SDS011;2482;49.154;8.254;2023-02-01T13:47:40;7.97;;;2.30;;
4933;SDS011;2482;49.154;8.254;2023-02-01T13:50:21;9.57;;;2.77;;
4933;SDS011;2482;49.154;8.254;2023-02-01T13:55:45;13.20;;;2.60;;
4933;SDS011;2482;49.154;8.254;2023-02-01T13:58:28;9.40;;;1.97;;
4933;SDS011;2482;49.154;8.254;2023-02-01T14:11:44;16.27;;;3.30;;
4933;SDS011;2482;49.154;8.254;2023-02-01T14:19:37;9.27;;;2.37;;
4933;SDS011;2482;49.154;8.254;2023-02-01T14:24:49;12.50;;;2.30;;
4933;SDS011;2482;49.154;8.254;2023-02-01T14:27:21;10.90;;;2.50;;
4933;SDS011;2482;49.154;8.254;2023-02-01T14:29:58;10.60;;;2.57;;
4933;SDS011;2482;49.154;8.254;2023-02-01T14:32:31;13.87;;;2.67;;
4933;SDS011;2482;49.154;8.254;2023-02-01T14:35:47;13.70;;;2.80;;
4933;SDS011;2482;49.154;8.254;2023-02-01T14:37:58;14.03;;;3.03;;
4933;SDS011;2482;49.154;8.254;2023-02-01T14:40:28;11.03;;;2.80;;
4933;SDS011;2482;49.154;8.254;2023-02-01T14:42:57;10.07;;;2.77;;
4933;SDS011;2482;49.154;8.254;2023-02-01T14:50:34;12.07;;;2.53;;
4933;SDS011;2482;49.154;8.254;2023-02-01T15:01:04;12.67;;;2.93;;
4933;SDS011;2482;49.154;8.254;2023-02-01T15:04:05;11.33;;;3.60;;
4933;SDS011;2482;49.154;8.254;2023-02-01T15:09:27;9.60;;;2.70;;
4933;SDS011;2482;49.154;8.254;2023-02-01T15:12:14;11.33;;;3.93;;
4933;SDS011;2482;49.154;8.254;2023-02-01T15:20:23;10.23;;;2.73;;
4933;SDS011;2482;49.154;8.254;2023-02-01T15:22:57;12.53;;;3.37;;
4933;SDS011;2482;49.154;8.254;2023-02-01T15:25:35;17.13;;;3.27;;
4933;SDS011;2482;49.154;8.254;2023-02-01T15:28:05;11.00;;;2.57;;
4933;SDS011;2482;49.154;8.254;2023-02-01T15:30:40;7.60;;;2.97;;
4933;SDS011;2482;49.154;8.254;2023-02-01T15:33:40;10.00;;;2.83;;
4933;SDS011;2482;49.154;8.254;2023-02-01T15:36:25;8.37;;;3.00;;
4933;SDS011;2482;49.154;8.254;2023-02-01T15:44:22;10.07;;;2.87;;
4933;SDS011;2482;49.154;8.254;2023-02-01T15:49:44;10.73;;;2.87;;
4933;SDS011;2482;49.154;8.254;2023-02-01T15:52:24;9.53;;;2.90;;
4933;SDS011;2482;49.154;8.254;2023-02-01T15:55:03;6.70;;;2.40;;
4933;SDS011;2482;49.154;8.254;2023-02-01T15:57:44;11.33;;;3.00;;
4933;SDS011;2482;49.154;8.254;2023-02-01T16:00:28;13.13;;;2.70;;
4933;SDS011;2482;49.154;8.254;2023-02-01T16:03:28;12.80;;;2.33;;
4933;SDS011;2482;49.154;8.254;2023-02-01T16:06:06;10.77;;;2.77;;
4933;SDS011;2482;49.154;8.254;2023-02-01T16:08:52;14.27;;;2.63;;
4933;SDS011;2482;49.154;8.254;2023-02-01T16:11:27;10.90;;;2.87;;
4933;SDS011;2482;49.154;8.254;2023-02-01T16:13:58;10.40;;;2.60;;
4933;SDS011;2482;49.154;8.254;2023-02-01T16:16:27;10.00;;;3.10;;
4933;SDS011;2482;49.154;8.254;2023-02-01T16:18:55;17.17;;;4.80;;
4933;SDS011;2482;49.154;8.254;2023-02-01T16:21:22;8.57;;;2.50;;
4933;SDS011;2482;49.154;8.254;2023-02-01T16:23:50;11.40;;;2.70;;
4933;SDS011;2482;49.154;8.254;2023-02-01T16:26:18;15.33;;;2.53;;
4933;SDS011;2482;49.154;8.254;2023-02-01T16:28:46;11.93;;;2.90;;
4933;SDS011;2482;49.154;8.254;2023-02-01T16:31:18;11.90;;;2.60;;
4933;SDS011;2482;49.154;8.254;2023-02-01T16:33:52;7.57;;;2.93;;
4933;SDS011;2482;49.154;8.254;2023-02-01T16:36:20;16.40;;;3.07;;
4933;SDS011;2482;49.154;8.254;2023-02-01T16:38:47;10.13;;;2.83;;
4933;SDS011;2482;49.154;8.254;2023-02-01T16:41:17;8.10;;;2.90;;
4933;SDS011;2482;49.154;8.254;2023-02-01T16:43:45;15.50;;;3.27;;
4933;SDS011;2482;49.154;8.254;2023-02-01T16:46:18;9.60;;;3.20;;
4933;SDS011;2482;49.154;8.254;2023-02-01T16:48:53;16.83;;;4.40;;
4933;SDS011;2482;49.154;8.254;2023-02-01T16:51:23;22.03;;;3.23;;
4933;SDS011;2482;49.154;8.254;2023-02-01T16:53:54;15.37;;;3.63;;
4933;SDS011;2482;49.154;8.254;2023-02-01T16:56:23;11.00;;;2.73;;
4933;SDS011;2482;49.154;8.254;2023-02-01T16:58:56;16.23;;;3.27;;
4933;SDS011;2482;49.154;8.254;2023-02-01T17:01:23;12.10;;;2.93;;
4933;SDS011;2482;49.154;8.254;2023-02-01T17:03:51;13.00;;;3.40;;
4933;SDS011;2482;49.154;8.254;2023-02-01T17:06:19;17.57;;;4.03;;
4933;SDS011;2482;49.154;8.254;2023-02-01T17:08:50;18.53;;;4.10;;
4933;SDS011;2482;49.154;8.254;2023-02-01T17:11:20;17.57;;;3.80;;
4933;SDS011;2482;49.154;8.254;2023-02-01T17:13:47;12.87;;;2.80;;
4933;SDS011;2482;49.154;8.254;2023-02-01T17:16:36;15.70;;;3.83;;
4933;SDS011;2482;49.154;8.254;2023-02-01T17:19:03;14.70;;;3.87;;
4933;SDS011;2482;49.154;8.254;2023-02-01T17:21:48;19.23;;;3.73;;
4933;SDS011;2482;49.154;8.254;2023-02-01T17:24:20;10.47;;;3.57;;
4933;SDS011;2482;49.154;8.254;2023-02-01T17:26:52;10.47;;;2.90;;
4933;SDS011;2482;49.154;8.254;2023-02-01T17:29:20;9.80;;;2.90;;
4933;SDS011;2482;49.154;8.254;2023-02-01T17:31:49;13.03;;;3.60;;
4933;SDS011;2482;49.154;8.254;2023-02-01T17:34:20;11.30;;;3.33;;
4933;SDS011;2482;49.154;8.254;2023-02-01T17:36:48;8.40;;;3.50;;
4933;SDS011;2482;49.154;8.254;2023-02-01T17:39:15;12.90;;;2.97;;
4933;SDS011;2482;49.154;8.254;2023-02-01T17:42:05;9.60;;;2.83;;
4933;SDS011;2482;49.154;8.254;2023-02-01T17:44:37;11.70;;;3.70;;
4933;SDS011;2482;49.154;8.254;2023-02-01T17:47:04;7.27;;;3.20;;
4933;SDS011;2482;49.154;8.254;2023-02-01T17:49:30;15.60;;;3.60;;
4933;SDS011;2482;49.154;8.254;2023-02-01T17:51:59;18.97;;;3.00;;
4933;SDS011;2482;49.154;8.254;2023-02-01T17:54:27;12.30;;;2.47;;
4933;SDS011;2482;49.154;8.254;2023-02-01T17:56:54;8.83;;;3.03;;
4933;SDS011;2482;49.154;8.254;2023-02-01T17:59:22;11.67;;;3.40;;
4933;SDS011;2482;49.154;8.254;2023-02-01T18:01:49;10.37;;;2.47;;
4933;SDS011;2482;49.154;8.254;2023-02-01T18:04:17;10.80;;;3.30;;
4933;SDS011;2482;49.154;8.254;2023-02-01T18:06:45;11.00;;;2.53;;
4933;SDS011;2482;49.154;8.254;2023-02-01T18:09:12;16.13;;;3.67;;
4933;SDS011;2482;49.154;8.254;2023-02-01T18:11:38;12.93;;;3.77;;
4933;SDS011;2482;49.154;8.254;2023-02-01T18:14:08;9.73;;;2.80;;
4933;SDS011;2482;49.154;8.254;2023-02-01T18:16:38;12.10;;;3.60;;
4933;SDS011;2482;49.154;8.254;2023-02-01T18:19:07;7.03;;;3.20;;
4933;SDS011;2482;49.154;8.254;2023-02-01T18:21:36;14.27;;;2.93;;
4933;SDS011;2482;49.154;8.254;2023-02-01T18:24:13;16.43;;;3.03;;
4933;SDS011;2482;49.154;8.254;2023-02-01T18:26:42;15.30;;;3.63;;
4933;SDS011;2482;49.154;8.254;2023-02-01T18:29:09;10.63;;;3.00;;
4933;SDS011;2482;49.154;8.254;2023-02-01T18:31:39;7.27;;;2.77;;
4933;SDS011;2482;49.154;8.254;2023-02-01T18:34:11;10.30;;;3.03;;
4933;SDS011;2482;49.154;8.254;2023-02-01T18:36:46;17.50;;;3.77;;
4933;SDS011;2482;49.154;8.254;2023-02-01T18:39:16;8.60;;;2.87;;
4933;SDS011;2482;49.154;8.254;2023-02-01T18:41:44;14.83;;;2.83;;
4933;SDS011;2482;49.154;8.254;2023-02-01T18:44:14;13.13;;;3.10;;
4933;SDS011;2482;49.154;8.254;2023-02-01T18:46:43;11.10;;;3.63;;
4933;SDS011;2482;49.154;8.254;2023-02-01T18:49:10;20.90;;;4.37;;
4933;SDS011;2482;49.154;8.254;2023-02-01T18:51:39;8.30;;;2.93;;
4933;SDS011;2482;49.154;8.254;2023-02-01T18:54:08;16.30;;;3.37;;
4933;SDS011;2482;49.154;8.254;2023-02-01T18:56:37;8.80;;;2.57;;
4933;SDS011;2482;49.154;8.254;2023-02-01T18:59:05;11.93;;;3.20;;